TimeCST,TemperatureF,Dew PointF,Humidity,Sea Level PressureIn,VisibilityMPH,Wind Direction,Wind SpeedMPH,Gust SpeedMPH,PrecipitationIn,Events,Conditions,WindDirDegrees,DateUTC
12:53 AM,30.9,27.0,85,30.51,6.0,Calm,Calm,-,N/A,,Clear,0,2012-11-17 06:53:00
1:53 AM,28.9,26.1,89,30.52,6.0,Calm,Calm,-,N/A,,Clear,0,2012-11-17 07:53:00
2:53 AM,28.9,25.0,85,30.54,5.0,Calm,Calm,-,N/A,,Clear,0,2012-11-17 08:53:00
3:53 AM,30.0,26.1,85,30.54,5.0,Calm,Calm,-,N/A,,Clear,0,2012-11-17 09:53:00
4:53 AM,28.0,25.0,88,30.56,5.0,ENE,3.5,-,N/A,,Clear,70,2012-11-17 10:53:00
5:53 AM,27.0,23.0,85,30.57,5.0,ESE,5.8,-,N/A,,Clear,110,2012-11-17 11:53:00
6:53 AM,27.0,23.0,85,30.58,4.0,North,4.6,-,N/A,,Clear,10,2012-11-17 12:53:00
7:53 AM,30.9,27.0,85,30.58,4.0,ESE,5.8,-,N/A,,Clear,120,2012-11-17 13:53:00
8:53 AM,39.0,30.9,73,30.58,5.0,ESE,3.5,-,N/A,,Haze,110,2012-11-17 14:53:00
9:53 AM,44.1,33.1,65,30.59,7.0,SSE,6.9,-,N/A,,Clear,160,2012-11-17 15:53:00
10:53 AM,48.0,34.0,58,30.57,6.0,South,8.1,-,N/A,,Haze,190,2012-11-17 16:53:00
11:53 AM,51.1,35.1,54,30.55,8.0,Variable,3.5,-,N/A,,Clear,0,2012-11-17 17:53:00
12:53 PM,53.1,34.0,48,30.53,9.0,SSE,4.6,-,N/A,,Clear,150,2012-11-17 18:53:00
1:53 PM,54.0,32.0,43,30.52,10.0,South,4.6,-,N/A,,Clear,180,2012-11-17 19:53:00
2:53 PM,54.0,33.1,45,30.51,9.0,Calm,Calm,-,N/A,,Clear,0,2012-11-17 20:53:00
3:53 PM,52.0,32.0,47,30.51,9.0,Calm,Calm,-,N/A,,Clear,0,2012-11-17 21:53:00
4:53 PM,45.0,30.9,58,30.51,10.0,Calm,Calm,-,N/A,,Clear,0,2012-11-17 22:53:00
5:53 PM,45.0,32.0,60,30.50,10.0,ESE,5.8,-,N/A,,Clear,110,2012-11-17 23:53:00
6:53 PM,41.0,30.0,65,30.50,9.0,ESE,4.6,-,N/A,,Clear,120,2012-11-18 00:53:00
7:53 PM,39.9,30.0,68,30.50,9.0,ESE,8.1,-,N/A,,Clear,120,2012-11-18 01:53:00
8:53 PM,42.1,32.0,67,30.49,9.0,ESE,9.2,-,N/A,,Clear,120,2012-11-18 02:53:00
9:53 PM,39.9,30.0,68,30.50,9.0,East,4.6,-,N/A,,Clear,100,2012-11-18 03:53:00
10:53 PM,37.9,30.0,73,30.50,8.0,East,3.5,-,N/A,,Clear,90,2012-11-18 04:53:00
11:53 PM,37.9,30.0,73,30.48,8.0,ESE,5.8,-,N/A,,Clear,110,2012-11-18 05:53:00